sensor_id;sensor_type;location;lat;lon;timestamp;P1;durP1;ratioP1;P2;durP2;ratioP2
22778;SDS011;11556;51.194;3.800;2022-09-09T00:01:27;11.52;;;4.15;;
22778;SDS011;11556;51.194;3.800;2022-09-09T00:04:15;11.23;;;4.15;;
22778;SDS011;11556;51.194;3.800;2022-09-09T00:09:18;13.07;;;3.35;;
22778;SDS011;11556;51.194;3.800;2022-09-09T00:14:30;21.92;;;4.85;;
22778;SDS011;11556;51.194;3.800;2022-09-09T00:17:16;11.23;;;3.47;;
22778;SDS011;11556;51.194;3.800;2022-09-09T00:22:17;5.15;;;2.08;;
22778;SDS011;11556;51.194;3.800;2022-09-09T00:24:45;8.95;;;3.03;;
22778;SDS011;11556;51.194;3.800;2022-09-09T00:32:41;8.90;;;2.65;;
22778;SDS011;11556;51.194;3.800;2022-09-09T00:35:14;6.53;;;2.42;;
22778;SDS011;11556;51.194;3.800;2022-09-09T00:37:42;12.02;;;3.17;;
22778;SDS011;11556;51.194;3.800;2022-09-09T00:40:34;17.42;;;3.67;;
22778;SDS011;11556;51.194;3.800;2022-09-09T00:48:10;16.70;;;6.45;;
22778;SDS011;11556;51.194;3.800;2022-09-09T00:50:44;19.40;;;5.88;;
22778;SDS011;11556;51.194;3.800;2022-09-09T00:53:19;20.35;;;5.70;;
22778;SDS011;11556;51.194;3.800;2022-09-09T00:58:42;19.27;;;6.70;;
22778;SDS011;11556;51.194;3.800;2022-09-09T01:01:11;15.27;;;4.50;;
22778;SDS011;11556;51.194;3.800;2022-09-09T01:06:29;21.27;;;7.15;;
22778;SDS011;11556;51.194;3.800;2022-09-09T01:09:13;28.92;;;8.32;;
22778;SDS011;11556;51.194;3.800;2022-09-09T01:12:07;21.35;;;6.72;;
22778;SDS011;11556;51.194;3.800;2022-09-09T01:25:56;28.90;;;9.80;;
22778;SDS011;11556;51.194;3.800;2022-09-09T01:28:32;15.10;;;4.90;;
22778;SDS011;11556;51.194;3.800;2022-09-09T01:31:02;21.05;;;6.28;;
22778;SDS011;11556;51.194;3.800;2022-09-09T01:33:30;26.10;;;6.65;;
22778;SDS011;11556;51.194;3.800;2022-09-09T01:38:22;19.83;;;5.40;;
22778;SDS011;11556;51.194;3.800;2022-09-09T01:40:50;20.35;;;5.53;;
22778;SDS011;11556;51.194;3.800;2022-09-09T01:43:18;21.42;;;5.53;;
22778;SDS011;11556;51.194;3.800;2022-09-09T01:45:45;18.33;;;4.70;;
22778;SDS011;11556;51.194;3.800;2022-09-09T01:48:13;15.10;;;4.00;;
22778;SDS011;11556;51.194;3.800;2022-09-09T01:50:39;24.92;;;5.25;;
22778;SDS011;11556;51.194;3.800;2022-09-09T01:53:04;26.00;;;6.60;;
22778;SDS011;11556;51.194;3.800;2022-09-09T01:55:36;15.00;;;4.65;;
22778;SDS011;11556;51.194;3.800;2022-09-09T02:00:55;17.90;;;4.93;;
22778;SDS011;11556;51.194;3.800;2022-09-09T02:03:27;17.67;;;5.20;;
22778;SDS011;11556;51.194;3.800;2022-09-09T02:06:13;18.63;;;3.65;;
22778;SDS011;11556;51.194;3.800;2022-09-09T02:08:55;19.17;;;5.28;;
22778;SDS011;11556;51.194;3.800;2022-09-09T02:11:23;20.52;;;4.63;;
22778;SDS011;11556;51.194;3.800;2022-09-09T02:13:54;13.50;;;4.10;;
22778;SDS011;11556;51.194;3.800;2022-09-09T02:16:33;17.60;;;4.45;;
22778;SDS011;11556;51.194;3.800;2022-09-09T02:19:11;21.83;;;7.87;;
22778;SDS011;11556;51.194;3.800;2022-09-09T02:21:48;25.58;;;7.65;;
22778;SDS011;11556;51.194;3.800;2022-09-09T02:24:15;16.65;;;6.40;;
22778;SDS011;11556;51.194;3.800;2022-09-09T02:26:41;18.90;;;6.07;;
22778;SDS011;11556;51.194;3.800;2022-09-09T02:29:14;18.38;;;4.20;;
22778;SDS011;11556;51.194;3.800;2022-09-09T02:31:43;13.57;;;4.40;;
22778;SDS011;11556;51.194;3.800;2022-09-09T02:34:11;17.92;;;4.45;;
22778;SDS011;11556;51.194;3.800;2022-09-09T02:36:38;21.42;;;5.45;;
22778;SDS011;11556;51.194;3.800;2022-09-09T02:39:08;12.75;;;4.68;;
22778;SDS011;11556;51.194;3.800;2022-09-09T02:41:36;22.67;;;4.93;;
22778;SDS011;11556;51.194;3.800;2022-09-09T02:44:13;10.50;;;3.60;;
22778;SDS011;11556;51.194;3.800;2022-09-09T02:49:45;9.75;;;3.35;;
22778;SDS011;11556;51.194;3.800;2022-09-09T02:52:26;9.90;;;2.70;;
22778;SDS011;11556;51.194;3.800;2022-09-09T02:54:57;9.52;;;2.28;;
22778;SDS011;11556;51.194;3.800;2022-09-09T02:57:29;10.82;;;2.33;;
22778;SDS011;11556;51.194;3.800;2022-09-09T02:59:57;8.80;;;2.13;;
22778;SDS011;11556;51.194;3.800;2022-09-09T03:02:23;11.35;;;2.75;;
22778;SDS011;11556;51.194;3.800;2022-09-09T03:04:50;14.82;;;2.50;;
22778;SDS011;11556;51.194;3.800;2022-09-09T03:07:17;8.27;;;2.10;;
22778;SDS011;11556;51.194;3.800;2022-09-09T03:09:43;11.10;;;2.60;;
22778;SDS011;11556;51.194;3.800;2022-09-09T03:12:09;9.00;;;2.40;;
22778;SDS011;11556;51.194;3.800;2022-09-09T03:14:36;14.32;;;2.55;;
22778;SDS011;11556;51.194;3.800;2022-09-09T03:17:03;14.82;;;2.50;;
22778;SDS011;11556;51.194;3.800;2022-09-09T03:19:29;8.48;;;2.35;;
22778;SDS011;11556;51.194;3.800;2022-09-09T03:21:55;10.98;;;2.30;;
22778;SDS011;11556;51.194;3.800;2022-09-09T03:24:21;8.70;;;2.28;;
22778;SDS011;11556;51.194;3.800;2022-09-09T03:26:47;15.32;;;2.92;;
22778;SDS011;11556;51.194;3.800;2022-09-09T03:29:13;10.32;;;2.63;;
22778;SDS011;11556;51.194;3.800;2022-09-09T03:31:39;11.32;;;3.10;;
22778;SDS011;11556;51.194;3.800;2022-09-09T03:34:05;15.82;;;3.85;;
22778;SDS011;11556;51.194;3.800;2022-09-09T03:36:31;14.88;;;3.00;;
22778;SDS011;11556;51.194;3.800;2022-09-09T03:38:57;12.88;;;2.85;;
22778;SDS011;11556;51.194;3.800;2022-09-09T03:41:24;9.18;;;2.92;;
22778;SDS011;11556;51.194;3.800;2022-09-09T03:43:51;14.98;;;3.22;;
22778;SDS011;11556;51.194;3.800;2022-09-09T03:46:20;11.82;;;2.63;;
22778;SDS011;11556;51.194;3.800;2022-09-09T03:48:47;15.68;;;2.70;;
22778;SDS011;11556;51.194;3.800;2022-09-09T03:51:12;14.05;;;3.35;;
22778;SDS011;11556;51.194;3.800;2022-09-09T03:53:38;14.20;;;3.63;;
22778;SDS011;11556;51.194;3.800;2022-09-09T03:56:04;9.43;;;2.28;;
22778;SDS011;11556;51.194;3.800;2022-09-09T03:58:32;12.85;;;2.97;;
22778;SDS011;11556;51.194;3.800;2022-09-09T04:01:11;10.52;;;3.25;;
22778;SDS011;11556;51.194;3.800;2022-09-09T04:03:38;13.15;;;3.22;;
22778;SDS011;11556;51.194;3.800;2022-09-09T04:06:04;12.60;;;3.50;;
22778;SDS011;11556;51.194;3.800;2022-09-09T04:08:33;13.30;;;3.20;;
22778;SDS011;11556;51.194;3.800;2022-09-09T04:10:59;10.48;;;3.22;;
22778;SDS011;11556;51.194;3.800;2022-09-09T04:13:30;17.77;;;3.10;;
22778;SDS011;11556;51.194;3.800;2022-09-09T04:15:59;13.80;;;3.50;;
22778;SDS011;11556;51.194;3.800;2022-09-09T04:18:26;20.17;;;3.80;;
22778;SDS011;11556;51.194;3.800;2022-09-09T04:20:53;14.57;;;3.95;;
22778;SDS011;11556;51.194;3.800;2022-09-09T04:23:20;13.48;;;3.28;;
22778;SDS011;11556;51.194;3.800;2022-09-09T04:25:46;13.77;;;3.50;;
22778;SDS011;11556;51.194;3.800;2022-09-09T04:28:14;16.27;;;3.45;;
22778;SDS011;11556;51.194;3.800;2022-09-09T04:30:40;17.77;;;3.05;;
22778;SDS011;11556;51.194;3.800;2022-09-09T04:33:07;9.10;;;2.42;;
22778;SDS011;11556;51.194;3.800;2022-09-09T04:35:34;8.13;;;2.22;;
22778;SDS011;11556;51.194;3.800;2022-09-09T04:38:00;18.27;;;2.75;;
22778;SDS011;11556;51.194;3.800;2022-09-09T04:40:27;9.60;;;2.10;;
22778;SDS011;11556;51.194;3.800;2022-09-09T04:42:54;14.30;;;2.55;;
22778;SDS011;11556;51.194;3.800;2022-09-09T04:45:20;15.82;;;2.80;;
22778;SDS011;11556;51.194;3.800;2022-09-09T04:47:45;16.38;;;2.97;;
22778;SDS011;11556;51.194;3.800;2022-09-09T04:50:11;13.20;;;2.65;;
22778;SDS011;11556;51.194;3.800;2022-09-09T04:52:37;13.88;;;2.30;;
22778;SDS011;11556;51.194;3.800;2022-09-09T04:55:03;14.90;;;2.38;;
22778;SDS011;11556;51.194;3.800;2022-09-09T04:57:29;16.85;;;2.38;;
22778;SDS011;11556;51.194;3.800;2022-09-09T04:59:57;16.58;;;2.80;;
22778;SDS011;11556;51.194;3.800;2022-09-09T05:02:23;13.93;;;3.00;;
22778;SDS011;11556;51.194;3.800;2022-09-09T05:04:48;10.00;;;2.13;;
22778;SDS011;11556;51.194;3.800;2022-09-09T05:07:14;10.65;;;3.05;;
22778;SDS011;11556;51.194;3.800;2022-09-09T05:09:40;10.27;;;2.65;;
22778;SDS011;11556;51.194;3.800;2022-09-09T05:12:06;11.95;;;2.50;;
22778;SDS011;11556;51.194;3.800;2022-09-09T05:14:31;12.88;;;2.92;;
22778;SDS011;11556;51.194;3.800;2022-09-09T05:16:57;13.23;;;3.28;;
22778;SDS011;11556;51.194;3.800;2022-09-09T05:19:23;10.55;;;2.92;;
22778;SDS011;11556;51.194;3.800;2022-09-09T05:21:48;15.20;;;2.67;;
22778;SDS011;11556;51.194;3.800;2022-09-09T05:24:15;12.85;;;3.30;;
22778;SDS011;11556;51.194;3.800;2022-09-09T05:26:41;14.73;;;3.20;;
22778;SDS011;11556;51.194;3.800;2022-09-09T05:29:08;13.70;;;3.20;;
22778;SDS011;11556;51.194;3.800;2022-09-09T05:31:34;17.95;;;3.40;;
22778;SDS011;11556;51.194;3.800;2022-09-09T05:33:59;12.85;;;2.83;;
22778;SDS011;11556;51.194;3.800;2022-09-09T05:36:25;14.07;;;2.70;;
22778;SDS011;11556;51.194;3.800;2022-09-09T05:38:51;12.20;;;2.72;;
22778;SDS011;11556;51.194;3.800;2022-09-09T05:41:18;13.23;;;3.65;;
22778;SDS011;11556;51.194;3.800;2022-09-09T05:43:45;16.67;;;3.97;;
22778;SDS011;11556;51.194;3.800;2022-09-09T05:46:18;17.30;;;3.50;;
22778;SDS011;11556;51.194;3.800;2022-09-09T05:48:46;17.02;;;3.40;;
22778;SDS011;11556;51.194;3.800;2022-09-09T05:51:16;13.13;;;3.17;;
22778;SDS011;11556;51.194;3.800;2022-09-09T05:53:44;8.73;;;2.83;;
22778;SDS011;11556;51.194;3.800;2022-09-09T05:56:13;10.57;;;3.10;;
22778;SDS011;11556;51.194;3.800;2022-09-09T05:58:40;19.85;;;3.60;;
22778;SDS011;11556;51.194;3.800;2022-09-09T06:01:12;12.07;;;3.15;;
22778;SDS011;11556;51.194;3.800;2022-09-09T06:03:41;12.65;;;3.33;;
22778;SDS011;11556;51.194;3.800;2022-09-09T06:06:08;18.67;;;3.75;;
22778;SDS011;11556;51.194;3.800;2022-09-09T06:08:40;10.53;;;2.93;;
22778;SDS011;11556;51.194;3.800;2022-09-09T06:13:35;10.13;;;2.92;;
22778;SDS011;11556;51.194;3.800;2022-09-09T06:16:03;14.63;;;3.58;;
22778;SDS011;11556;51.194;3.800;2022-09-09T06:18:30;17.33;;;3.47;;
22778;SDS011;11556;51.194;3.800;2022-09-09T06:23:22;13.95;;;3.58;;
22778;SDS011;11556;51.194;3.800;2022-09-09T06:25:47;12.25;;;3.33;;
22778;SDS011;11556;51.194;3.800;2022-09-09T06:28:14;12.80;;;2.97;;
22778;SDS011;11556;51.194;3.800;2022-09-09T06:30:42;12.35;;;3.63;;
22778;SDS011;11556;51.194;3.800;2022-09-09T06:33:08;14.25;;;3.42;;
22778;SDS011;11556;51.194;3.800;2022-09-09T06:35:34;15.65;;;3.85;;
22778;SDS011;11556;51.194;3.800;2022-09-09T06:38:00;7.82;;;3.05;;
22778;SDS011;11556;51.194;3.800;2022-09-09T06:40:25;10.90;;;3.65;;
22778;SDS011;11556;51.194;3.800;2022-09-09T06:42:51;13.18;;;3.75;;
22778;SDS011;11556;51.194;3.800;2022-09-09T06:45:17;12.32;;;3.70;;
22778;SDS011;11556;51.194;3.800;2022-09-09T06:47:42;18.27;;;3.80;;
22778;SDS011;11556;51.194;3.800;2022-09-09T06:50:08;15.07;;;3.25;;
22778;SDS011;11556;51.194;3.800;2022-09-09T06:52:35;19.33;;;3.75;;
22778;SDS011;11556;51.194;3.800;2022-09-09T06:55:00;12.73;;;3.50;;
22778;SDS011;11556;51.194;3.800;2022-09-09T06:57:26;9.43;;;3.42;;
22778;SDS011;11556;51.194;3.800;2022-09-09T06:59:52;14.40;;;3.22;;
22778;SDS011;11556;51.194;3.800;2022-09-09T07:02:17;16.38;;;3.20;;
22778;SDS011;11556;51.194;3.800;2022-09-09T07:04:43;15.52;;;3.88;;
22778;SDS011;11556;51.194;3.800;2022-09-09T07:07:10;12.25;;;3.05;;
22778;SDS011;11556;51.194;3.800;2022-09-09T07:09:38;13.05;;;2.80;;
22778;SDS011;11556;51.194;3.800;2022-09-09T07:12:04;9.40;;;2.35;;
22778;SDS011;11556;51.194;3.800;2022-09-09T07:14:31;11.75;;;2.72;;
22778;SDS011;11556;51.194;3.800;2022-09-09T07:16:57;14.48;;;3.25;;
22778;SDS011;11556;51.194;3.800;2022-09-09T07:19:23;9.50;;;2.50;;
22778;SDS011;11556;51.194;3.800;2022-09-09T07:21:48;9.13;;;2.28;;
22778;SDS011;11556;51.194;3.800;2022-09-09T07:24:14;11.25;;;2.78;;
22778;SDS011;11556;51.194;3.800;2022-09-09T07:26:40;11.52;;;2.60;;
22778;SDS011;11556;51.194;3.800;2022-09-09T07:29:06;9.05;;;2.42;;
22778;SDS011;11556;51.194;3.800;2022-09-09T07:31:34;10.30;;;2.53;;
22778;SDS011;11556;51.194;3.800;2022-09-09T07:34:02;13.60;;;2.50;;
22778;SDS011;11556;51.194;3.800;2022-09-09T07:36:32;13.45;;;2.88;;
22778;SDS011;11556;51.194;3.800;2022-09-09T07:39:00;13.43;;;2.42;;
22778;SDS011;11556;51.194;3.800;2022-09-09T07:41:34;11.05;;;2.28;;
22778;SDS011;11556;51.194;3.800;2022-09-09T07:44:14;8.55;;;2.08;;
22778;SDS011;11556;51.194;3.800;2022-09-09T07:46:46;11.15;;;2.40;;
22778;SDS011;11556;51.194;3.800;2022-09-09T07:49:12;8.90;;;2.33;;
22778;SDS011;11556;51.194;3.800;2022-09-09T07:51:39;13.55;;;2.47;;
22778;SDS011;11556;51.194;3.800;2022-09-09T07:54:07;9.60;;;2.28;;
22778;SDS011;11556;51.194;3.800;2022-09-09T07:56:36;10.82;;;1.98;;
22778;SDS011;11556;51.194;3.800;2022-09-09T07:59:02;10.23;;;2.13;;
22778;SDS011;11556;51.194;3.800;2022-09-09T08:01:32;7.97;;;2.10;;
22778;SDS011;11556;51.194;3.800;2022-09-09T08:04:05;21.83;;;9.65;;
22778;SDS011;11556;51.194;3.800;2022-09-09T08:06:42;9.90;;;2.00;;
22778;SDS011;11556;51.194;3.800;2022-09-09T08:09:28;11.43;;;2.30;;
22778;SDS011;11556;51.194;3.800;2022-09-09T08:11:54;10.38;;;2.55;;
22778;SDS011;11556;51.194;3.800;2022-09-09T08:14:24;8.38;;;2.15;;
22778;SDS011;11556;51.194;3.800;2022-09-09T08:16:50;8.95;;;2.50;;
22778;SDS011;11556;51.194;3.800;2022-09-09T08:19:18;11.00;;;2.05;;
22778;SDS011;11556;51.194;3.800;2022-09-09T08:21:44;8.98;;;2.00;;
22778;SDS011;11556;51.194;3.800;2022-09-09T08:24:10;7.63;;;2.13;;
22778;SDS011;11556;51.194;3.800;2022-09-09T08:26:40;10.65;;;2.17;;
22778;SDS011;11556;51.194;3.800;2022-09-09T08:29:07;7.72;;;1.90;;
22778;SDS011;11556;51.194;3.800;2022-09-09T08:31:54;9.30;;;2.20;;
22778;SDS011;11556;51.194;3.800;2022-09-09T08:34:22;9.32;;;2.80;;
22778;SDS011;11556;51.194;3.800;2022-09-09T08:36:49;6.55;;;2.22;;
22778;SDS011;11556;51.194;3.800;2022-09-09T08:39:16;15.23;;;2.72;;
22778;SDS011;11556;51.194;3.800;2022-09-09T08:55:49;11.65;;;2.47;;
22778;SDS011;11556;51.194;3.800;2022-09-09T08:58:38;14.57;;;3.05;;
22778;SDS011;11556;51.194;3.800;2022-09-09T09:11:40;8.32;;;2.33;;
22778;SDS011;11556;51.194;3.800;2022-09-09T09:14:15;9.50;;;2.72;;
22778;SDS011;11556;51.194;3.800;2022-09-09T09:19:22;9.57;;;2.55;;
22778;SDS011;11556;51.194;3.800;2022-09-09T09:24:56;19.75;;;11.52;;
22778;SDS011;11556;51.194;3.800;2022-09-09T09:30:05;4.88;;;1.90;;
22778;SDS011;11556;51.194;3.800;2022-09-09T09:32:38;8.00;;;2.13;;
22778;SDS011;11556;51.194;3.800;2022-09-09T09:35:10;17.77;;;8.48;;
22778;SDS011;11556;51.194;3.800;2022-09-09T09:37:37;4.93;;;1.77;;
22778;SDS011;11556;51.194;3.800;2022-09-09T09:40:13;5.88;;;2.03;;
22778;SDS011;11556;51.194;3.800;2022-09-09T09:42:51;6.35;;;1.77;;
22778;SDS011;11556;51.194;3.800;2022-09-09T09:48:09;5.75;;;1.60;;
22778;SDS011;11556;51.194;3.800;2022-09-09T09:50:54;7.90;;;1.80;;
22778;SDS011;11556;51.194;3.800;2022-09-09T09:53:28;5.15;;;1.60;;
22778;SDS011;11556;51.194;3.800;2022-09-09T09:58:24;7.80;;;1.58;;
22778;SDS011;11556;51.194;3.800;2022-09-09T10:00:52;4.53;;;1.60;;
22778;SDS011;11556;51.194;3.800;2022-09-09T10:03:20;7.15;;;1.95;;
22778;SDS011;11556;51.194;3.800;2022-09-09T10:05:47;4.55;;;1.40;;
22778;SDS011;11556;51.194;3.800;2022-09-09T10:08:14;9.55;;;1.90;;
22778;SDS011;11556;51.194;3.800;2022-09-09T10:16:21;5.47;;;1.75;;
22778;SDS011;11556;51.194;3.800;2022-09-09T10:21:53;5.95;;;1.88;;
22778;SDS011;11556;51.194;3.800;2022-09-09T10:30:23;4.80;;;1.70;;
22778;SDS011;11556;51.194;3.800;2022-09-09T10:33:12;3.92;;;1.40;;
22778;SDS011;11556;51.194;3.800;2022-09-09T10:38:37;5.72;;;1.63;;
22778;SDS011;11556;51.194;3.800;2022-09-09T11:00:39;3.20;;;1.35;;
22778;SDS011;11556;51.194;3.800;2022-09-09T11:03:41;4.43;;;1.05;;
22778;SDS011;11556;51.194;3.800;2022-09-09T11:06:02;4.93;;;1.20;;
22778;SDS011;11556;51.194;3.800;2022-09-09T11:08:31;4.43;;;1.55;;
22778;SDS011;11556;51.194;3.800;2022-09-09T11:11:33;3.13;;;1.23;;
22778;SDS011;11556;51.194;3.800;2022-09-09T11:16:52;5.85;;;1.60;;
22778;SDS011;11556;51.194;3.800;2022-09-09T11:21:53;3.47;;;1.20;;
22778;SDS011;11556;51.194;3.800;2022-09-09T11:24:28;3.97;;;1.13;;
22778;SDS011;11556;51.194;3.800;2022-09-09T11:27:14;5.35;;;1.60;;
22778;SDS011;11556;51.194;3.800;2022-09-09T11:30:02;7.10;;;1.70;;
22778;SDS011;11556;51.194;3.800;2022-09-09T11:38:23;6.15;;;1.17;;
22778;SDS011;11556;51.194;3.800;2022-09-09T11:41:02;4.55;;;1.63;;
22778;SDS011;11556;51.194;3.800;2022-09-09T11:43:52;5.85;;;1.50;;
22778;SDS011;11556;51.194;3.800;2022-09-09T11:46:18;10.20;;;2.15;;
22778;SDS011;11556;51.194;3.800;2022-09-09T11:48:58;2.95;;;1.00;;
22778;SDS011;11556;51.194;3.800;2022-09-09T11:51:26;2.03;;;0.90;;
22778;SDS011;11556;51.194;3.800;2022-09-09T11:53:58;3.72;;;1.33;;
22778;SDS011;11556;51.194;3.800;2022-09-09T11:56:28;5.07;;;1.33;;
22778;SDS011;11556;51.194;3.800;2022-09-09T11:59:03;4.60;;;1.20;;
22778;SDS011;11556;51.194;3.800;2022-09-09T12:06:48;4.95;;;1.35;;
22778;SDS011;11556;51.194;3.800;2022-09-09T12:09:28;5.35;;;1.30;;
22778;SDS011;11556;51.194;3.800;2022-09-09T12:14:56;4.75;;;1.30;;
22778;SDS011;11556;51.194;3.800;2022-09-09T12:17:29;6.22;;;1.50;;
22778;SDS011;11556;51.194;3.800;2022-09-09T12:30:29;4.93;;;1.55;;
22778;SDS011;11556;51.194;3.800;2022-09-09T12:33:18;4.78;;;1.38;;
22778;SDS011;11556;51.194;3.800;2022-09-09T12:35:45;6.28;;;1.10;;
22778;SDS011;11556;51.194;3.800;2022-09-09T12:38:22;3.42;;;1.20;;
22778;SDS011;11556;51.194;3.800;2022-09-09T12:40:57;4.90;;;1.10;;
22778;SDS011;11556;51.194;3.800;2022-09-09T12:43:24;4.65;;;1.10;;
22778;SDS011;11556;51.194;3.800;2022-09-09T12:45:51;6.47;;;1.30;;
22778;SDS011;11556;51.194;3.800;2022-09-09T12:48:35;5.82;;;1.55;;
22778;SDS011;11556;51.194;3.800;2022-09-09T12:51:14;5.00;;;1.30;;
22778;SDS011;11556;51.194;3.800;2022-09-09T12:53:44;5.53;;;1.38;;
22778;SDS011;11556;51.194;3.800;2022-09-09T12:56:18;8.18;;;1.77;;
22778;SDS011;11556;51.194;3.800;2022-09-09T12:58:46;3.80;;;1.55;;
22778;SDS011;11556;51.194;3.800;2022-09-09T13:01:24;7.13;;;2.25;;
22778;SDS011;11556;51.194;3.800;2022-09-09T13:03:54;6.75;;;1.92;;
22778;SDS011;11556;51.194;3.800;2022-09-09T13:06:22;5.38;;;1.80;;
22778;SDS011;11556;51.194;3.800;2022-09-09T13:08:50;5.80;;;1.88;;
22778;SDS011;11556;51.194;3.800;2022-09-09T13:11:17;4.63;;;1.85;;
22778;SDS011;11556;51.194;3.800;2022-09-09T13:13:51;5.35;;;1.65;;
22778;SDS011;11556;51.194;3.800;2022-09-09T13:16:22;5.07;;;1.60;;
22778;SDS011;11556;51.194;3.800;2022-09-09T13:18:56;5.18;;;1.25;;
22778;SDS011;11556;51.194;3.800;2022-09-09T13:21:36;4.15;;;1.20;;
22778;SDS011;11556;51.194;3.800;2022-09-09T13:24:29;3.38;;;1.30;;
22778;SDS011;11556;51.194;3.800;2022-09-09T13:29:23;5.15;;;1.50;;
22778;SDS011;11556;51.194;3.800;2022-09-09T13:31:49;5.45;;;1.70;;
22778;SDS011;11556;51.194;3.800;2022-09-09T13:34:30;5.90;;;1.85;;
22778;SDS011;11556;51.194;3.800;2022-09-09T13:36:59;4.35;;;1.88;;
22778;SDS011;11556;51.194;3.800;2022-09-09T13:39:27;7.80;;;2.53;;
22778;SDS011;11556;51.194;3.800;2022-09-09T13:41:53;6.32;;;2.80;;
22778;SDS011;11556;51.194;3.800;2022-09-09T13:44:28;5.97;;;2.53;;
22778;SDS011;11556;51.194;3.800;2022-09-09T13:47:02;6.82;;;2.90;;
22778;SDS011;11556;51.194;3.800;2022-09-09T13:49:41;7.82;;;3.30;;
22778;SDS011;11556;51.194;3.800;2022-09-09T13:52:11;11.25;;;3.67;;
22778;SDS011;11556;51.194;3.800;2022-09-09T13:54:38;6.22;;;2.92;;
22778;SDS011;11556;51.194;3.800;2022-09-09T13:57:05;9.27;;;2.53;;
22778;SDS011;11556;51.194;3.800;2022-09-09T13:59:38;5.28;;;3.45;;
22778;SDS011;11556;51.194;3.800;2022-09-09T14:02:04;6.88;;;3.92;;
22778;SDS011;11556;51.194;3.800;2022-09-09T14:04:30;8.20;;;3.50;;
22778;SDS011;11556;51.194;3.800;2022-09-09T14:06:55;7.53;;;3.00;;
22778;SDS011;11556;51.194;3.800;2022-09-09T14:09:21;4.22;;;2.30;;
22778;SDS011;11556;51.194;3.800;2022-09-09T14:11:47;3.45;;;1.20;;
22778;SDS011;11556;51.194;3.800;2022-09-09T14:14:12;5.60;;;2.17;;
22778;SDS011;11556;51.194;3.800;2022-09-09T14:16:38;6.10;;;1.77;;
22778;SDS011;11556;51.194;3.800;2022-09-09T14:19:03;7.32;;;1.90;;
22778;SDS011;11556;51.194;3.800;2022-09-09T14:21:29;4.38;;;1.30;;
22778;SDS011;11556;51.194;3.800;2022-09-09T14:23:55;3.50;;;1.15;;
22778;SDS011;11556;51.194;3.800;2022-09-09T14:26:23;4.70;;;1.17;;
22778;SDS011;11556;51.194;3.800;2022-09-09T14:28:49;5.80;;;1.77;;
22778;SDS011;11556;51.194;3.800;2022-09-09T14:31:15;3.40;;;1.10;;
22778;SDS011;11556;51.194;3.800;2022-09-09T14:33:42;3.58;;;1.40;;
22778;SDS011;11556;51.194;3.800;2022-09-09T14:36:09;4.07;;;1.55;;
22778;SDS011;11556;51.194;3.800;2022-09-09T14:38:36;5.78;;;1.70;;
22778;SDS011;11556;51.194;3.800;2022-09-09T14:41:07;5.15;;;1.63;;
22778;SDS011;11556;51.194;3.800;2022-09-09T14:43:35;4.00;;;1.58;;
22778;SDS011;11556;51.194;3.800;2022-09-09T14:46:05;5.18;;;1.40;;
22778;SDS011;11556;51.194;3.800;2022-09-09T14:48:36;4.45;;;1.80;;
22778;SDS011;11556;51.194;3.800;2022-09-09T14:51:09;2.15;;;1.58;;
22778;SDS011;11556;51.194;3.800;2022-09-09T14:53:40;3.35;;;1.40;;
22778;SDS011;11556;51.194;3.800;2022-09-09T14:56:16;2.75;;;1.60;;
22778;SDS011;11556;51.194;3.800;2022-09-09T14:58:45;4.95;;;1.90;;
22778;SDS011;11556;51.194;3.800;2022-09-09T15:01:12;3.53;;;1.77;;
22778;SDS011;11556;51.194;3.800;2022-09-09T15:03:40;3.63;;;1.80;;
22778;SDS011;11556;51.194;3.800;2022-09-09T15:06:11;5.03;;;1.50;;
22778;SDS011;11556;51.194;3.800;2022-09-09T15:08:39;3.90;;;1.30;;
22778;SDS011;11556;51.194;3.800;2022-09-09T15:11:05;3.35;;;1.40;;
22778;SDS011;11556;51.194;3.800;2022-09-09T15:13:32;2.55;;;1.30;;
22778;SDS011;11556;51.194;3.800;2022-09-09T15:18:33;4.47;;;1.58;;
22778;SDS011;11556;51.194;3.800;2022-09-09T15:21:01;4.75;;;1.55;;
22778;SDS011;11556;51.194;3.800;2022-09-09T15:23:31;3.88;;;1.50;;
22778;SDS011;11556;51.194;3.800;2022-09-09T15:25:57;6.53;;;2.38;;
22778;SDS011;11556;51.194;3.800;2022-09-09T15:28:23;4.65;;;1.80;;
22778;SDS011;11556;51.194;3.800;2022-09-09T15:30:52;4.28;;;2.33;;
22778;SDS011;11556;51.194;3.800;2022-09-09T15:33:19;4.22;;;2.20;;
22778;SDS011;11556;51.194;3.800;2022-09-09T15:35:45;7.82;;;3.80;;
22778;SDS011;11556;51.194;3.800;2022-09-09T15:38:11;6.13;;;3.00;;
22778;SDS011;11556;51.194;3.800;2022-09-09T15:40:41;8.52;;;3.30;;
22778;SDS011;11556;51.194;3.800;2022-09-09T15:43:08;6.85;;;4.22;;
22778;SDS011;11556;51.194;3.800;2022-09-09T15:45:35;6.22;;;3.13;;
22778;SDS011;11556;51.194;3.800;2022-09-09T15:48:01;8.85;;;3.05;;
22778;SDS011;11556;51.194;3.800;2022-09-09T15:50:28;6.90;;;3.10;;
22778;SDS011;11556;51.194;3.800;2022-09-09T15:52:56;11.70;;;3.28;;
22778;SDS011;11556;51.194;3.800;2022-09-09T15:55:22;8.20;;;3.17;;
22778;SDS011;11556;51.194;3.800;2022-09-09T15:57:49;7.47;;;2.83;;
22778;SDS011;11556;51.194;3.800;2022-09-09T16:00:15;8.07;;;2.20;;
22778;SDS011;11556;51.194;3.800;2022-09-09T16:02:41;4.32;;;1.80;;
22778;SDS011;11556;51.194;3.800;2022-09-09T16:05:07;4.25;;;1.58;;
22778;SDS011;11556;51.194;3.800;2022-09-09T16:07:33;5.20;;;2.00;;
22778;SDS011;11556;51.194;3.800;2022-09-09T16:09:59;1.83;;;1.20;;
22778;SDS011;11556;51.194;3.800;2022-09-09T16:12:25;2.55;;;1.27;;
22778;SDS011;11556;51.194;3.800;2022-09-09T16:14:51;3.63;;;1.38;;
22778;SDS011;11556;51.194;3.800;2022-09-09T16:17:17;2.65;;;1.30;;
22778;SDS011;11556;51.194;3.800;2022-09-09T16:19:44;5.60;;;1.58;;
22778;SDS011;11556;51.194;3.800;2022-09-09T16:22:10;5.88;;;1.67;;
22778;SDS011;11556;51.194;3.800;2022-09-09T16:24:36;3.65;;;1.70;;
22778;SDS011;11556;51.194;3.800;2022-09-09T16:27:02;4.03;;;1.50;;
22778;SDS011;11556;51.194;3.800;2022-09-09T16:29:27;4.13;;;1.52;;
22778;SDS011;11556;51.194;3.800;2022-09-09T16:31:53;4.70;;;1.90;;
22778;SDS011;11556;51.194;3.800;2022-09-09T16:34:19;4.25;;;1.80;;
22778;SDS011;11556;51.194;3.800;2022-09-09T16:36:46;3.00;;;2.40;;
22778;SDS011;11556;51.194;3.800;2022-09-09T16:39:14;5.63;;;2.88;;
22778;SDS011;11556;51.194;3.800;2022-09-09T16:41:41;4.90;;;3.33;;
22778;SDS011;11556;51.194;3.800;2022-09-09T16:44:09;6.13;;;3.40;;
22778;SDS011;11556;51.194;3.800;2022-09-09T16:46:37;7.15;;;3.92;;
22778;SDS011;11556;51.194;3.800;2022-09-09T16:49:05;8.48;;;4.03;;
22778;SDS011;11556;51.194;3.800;2022-09-09T16:51:34;8.95;;;4.07;;
22778;SDS011;11556;51.194;3.800;2022-09-09T16:54:02;5.72;;;3.85;;
22778;SDS011;11556;51.194;3.800;2022-09-09T16:56:30;6.18;;;4.35;;
22778;SDS011;11556;51.194;3.800;2022-09-09T16:59:00;8.95;;;4.05;;
22778;SDS011;11556;51.194;3.800;2022-09-09T17:01:29;10.30;;;4.88;;
22778;SDS011;11556;51.194;3.800;2022-09-09T17:03:57;7.00;;;3.63;;
22778;SDS011;11556;51.194;3.800;2022-09-09T17:06:24;4.90;;;3.95;;
22778;SDS011;11556;51.194;3.800;2022-09-09T17:08:57;7.28;;;3.55;;
22778;SDS011;11556;51.194;3.800;2022-09-09T17:11:26;7.40;;;3.90;;
22778;SDS011;11556;51.194;3.800;2022-09-09T17:13:52;5.40;;;3.60;;
22778;SDS011;11556;51.194;3.800;2022-09-09T17:16:19;7.47;;;3.20;;
22778;SDS011;11556;51.194;3.800;2022-09-09T17:18:46;6.40;;;3.88;;
22778;SDS011;11556;51.194;3.800;2022-09-09T17:21:15;6.78;;;3.65;;
22778;SDS011;11556;51.194;3.800;2022-09-09T17:23:43;8.20;;;3.78;;
22778;SDS011;11556;51.194;3.800;2022-09-09T17:26:10;7.45;;;3.22;;
22778;SDS011;11556;51.194;3.800;2022-09-09T17:28:38;7.35;;;3.53;;
22778;SDS011;11556;51.194;3.800;2022-09-09T17:31:08;4.18;;;3.05;;
22778;SDS011;11556;51.194;3.800;2022-09-09T17:33:36;8.15;;;3.90;;